Time;durP1;ratioP1;P1;durP2;ratioP2;P2;SDS_P1;SDS_P2;PMS_P1;PMS_P2;Temp;Humidity;BMP_temperature;BMP_pressure;BME280_temperature;BME280_humidity;BME280_pressure;Samples;Min_cycle;Max_cycle;Signal;HPM_P1;HPM_P2
2022/09/16 00:01:52;;;;;;;6.00;2.50;;;;;;;;;;5058978;28;20017;-73
2022/09/16 00:04:17;;;;;;;7.65;2.60;;;;;;;;;;5058258;28;20256;-73
2022/09/16 00:06:42;;;;;;;5.57;2.40;;;;;;;;;;5060509;28;20037;-73
2022/09/16 00:09:08;;;;;;;9.95;2.53;;;;;;;;;;5044929;28;20042;-73
2022/09/16 00:11:33;;;;;;;9.15;2.65;;;;;;;;;;5044134;28;20871;-72
2022/09/16 00:13:59;;;;;;;12.43;3.38;;;;;;;;;;5041006;28;20025;-73
2022/09/16 00:16:25;;;;;;;8.52;3.10;;;;;;;;;;5046813;28;20383;-74
2022/09/16 00:18:57;;;;;;;8.07;3.13;;;;;;;;;;5059787;28;20032;-74
2022/09/16 00:21:23;;;;;;;9.65;2.58;;;;;;;;;;5058314;28;20147;-73
2022/09/16 00:23:48;;;;;;;11.13;3.42;;;;;;;;;;5058426;28;20439;-72
2022/09/16 00:26:14;;;;;;;10.50;3.00;;;;;;;;;;5058234;28;20036;-72
2022/09/16 00:28:39;;;;;;;10.40;2.70;;;;;;;;;;5057316;28;20037;-74
2022/09/16 00:31:04;;;;;;;20.80;3.83;;;;;;;;;;5059249;28;20347;-73
2022/09/16 00:33:30;;;;;;;14.13;3.50;;;;;;;;;;5050574;28;20033;-72
2022/09/16 00:36:12;;;;;;;18.45;3.50;;;;;;;;;;5050632;28;20032;-73
2022/09/16 00:38:37;;;;;;;10.90;3.20;;;;;;;;;;5042561;28;20452;-73
2022/09/16 00:41:03;;;;;;;9.15;2.90;;;;;;;;;;5054432;28;20055;-73
2022/09/16 00:43:28;;;;;;;9.93;2.80;;;;;;;;;;5058714;28;20064;-72
2022/09/16 00:46:01;;;;;;;11.18;3.30;;;;;;;;;;5058088;28;20443;-73
2022/09/16 00:48:28;;;;;;;9.20;3.15;;;;;;;;;;5057416;28;20088;-74
2022/09/16 00:50:56;;;;;;;9.45;2.85;;;;;;;;;;5060248;28;20066;-72
2022/09/16 00:53:24;;;;;;;8.10;2.60;;;;;;;;;;5059077;28;20099;-73
2022/09/16 00:55:50;;;;;;;9.43;2.90;;;;;;;;;;5057344;28;20037;-73
2022/09/16 00:58:28;;;;;;;9.85;3.08;;;;;;;;;;5058161;28;20024;-74
2022/09/16 01:00:53;;;;;;;10.13;3.05;;;;;;;;;;5055414;28;20051;-74
2022/09/16 01:03:19;;;;;;;11.77;3.13;;;;;;;;;;5058503;28;20025;-72
2022/09/16 01:05:45;;;;;;;14.50;3.22;;;;;;;;;;5056865;28;20013;-73
2022/09/16 01:08:11;;;;;;;15.05;3.35;;;;;;;;;;5056788;28;20348;-74
2022/09/16 01:10:36;;;;;;;12.82;3.38;;;;;;;;;;5058546;28;20090;-76
2022/09/16 01:13:03;;;;;;;11.20;3.40;;;;;;;;;;5038475;28;20028;-73
2022/09/16 01:15:47;;;;;;;12.88;3.42;;;;;;;;;;5057544;28;20028;-73
2022/09/16 01:18:12;;;;;;;12.57;2.90;;;;;;;;;;5055933;28;20040;-72
2022/09/16 01:20:38;;;;;;;10.23;3.40;;;;;;;;;;5059121;28;20444;-73
2022/09/16 01:23:06;;;;;;;12.18;3.67;;;;;;;;;;5058517;28;20032;-72
2022/09/16 01:25:50;;;;;;;14.70;3.40;;;;;;;;;;5057118;28;20032;-73
2022/09/16 01:28:22;;;;;;;16.77;3.65;;;;;;;;;;5058622;28;20033;-74
2022/09/16 01:30:53;;;;;;;10.88;3.25;;;;;;;;;;5047791;28;20017;-72
2022/09/16 01:33:21;;;;;;;14.68;3.55;;;;;;;;;;5053705;28;20119;-72
2022/09/16 01:35:52;;;;;;;11.68;3.33;;;;;;;;;;5060959;28;20017;-75
2022/09/16 01:38:17;;;;;;;17.58;4.22;;;;;;;;;;5062465;28;20028;-73
2022/09/16 01:40:45;;;;;;;16.37;4.30;;;;;;;;;;5060390;28;20070;-73
2022/09/16 01:43:24;;;;;;;9.32;3.17;;;;;;;;;;5042100;28;20735;-73
2022/09/16 01:45:54;;;;;;;12.30;3.65;;;;;;;;;;5061501;28;20035;-73
2022/09/16 01:48:23;;;;;;;11.02;3.22;;;;;;;;;;5063009;28;20012;-75
2022/09/16 01:50:57;;;;;;;14.38;3.38;;;;;;;;;;5059587;28;20082;-72
2022/09/16 01:53:31;;;;;;;13.95;3.78;;;;;;;;;;5060963;28;20032;-75
2022/09/16 01:55:59;;;;;;;9.98;3.28;;;;;;;;;;5041593;28;20032;-72
2022/09/16 01:58:31;;;;;;;13.52;3.50;;;;;;;;;;5061039;28;20039;-72
2022/09/16 02:01:00;;;;;;;11.50;4.07;;;;;;;;;;5061445;28;20029;-73
2022/09/16 02:03:26;;;;;;;;;;;;;;;;;;5062159;28;20082;-73
2022/09/16 02:05:51;;;;;;;16.83;3.77;;;;;;;;;;5060035;28;20685;-75
2022/09/16 02:08:22;;;;;;;13.67;3.80;;;;;;;;;;5060760;28;20115;-74
2022/09/16 02:10:51;;;;;;;13.88;3.25;;;;;;;;;;5061305;28;20242;-75
2022/09/16 02:13:20;;;;;;;12.07;3.42;;;;;;;;;;5063176;28;20024;-73
2022/09/16 02:15:47;;;;;;;13.20;3.90;;;;;;;;;;5059430;28;20063;-73
2022/09/16 02:18:14;;;;;;;15.55;3.80;;;;;;;;;;5043707;28;20354;-74
2022/09/16 02:20:41;;;;;;;18.45;4.35;;;;;;;;;;5063088;28;20081;-74
2022/09/16 02:23:28;;;;;;;13.20;3.65;;;;;;;;;;5060822;28;20355;-73
2022/09/16 02:25:53;;;;;;;12.43;3.60;;;;;;;;;;5060303;28;20474;-74
2022/09/16 02:28:22;;;;;;;9.50;3.03;;;;;;;;;;5060365;28;20044;-73
2022/09/16 02:30:50;;;;;;;8.95;3.00;;;;;;;;;;5060772;28;20029;-74
2022/09/16 02:33:16;;;;;;;14.50;3.47;;;;;;;;;;5060656;28;20032;-73
2022/09/16 02:35:43;;;;;;;13.63;3.20;;;;;;;;;;5060544;28;20016;-72
2022/09/16 02:38:14;;;;;;;15.95;4.05;;;;;;;;;;5060336;28;20037;-75
2022/09/16 02:40:47;;;;;;;14.82;3.60;;;;;;;;;;5058800;28;20032;-74
2022/09/16 02:43:13;;;;;;;22.10;4.70;;;;;;;;;;5059210;28;20113;-73
2022/09/16 02:45:47;;;;;;;19.60;4.70;;;;;;;;;;5059115;28;20498;-74
2022/09/16 02:48:25;;;;;;;15.25;3.95;;;;;;;;;;5060769;28;20047;-74
2022/09/16 02:51:01;;;;;;;21.65;3.88;;;;;;;;;;5058883;28;20067;-72
2022/09/16 02:53:26;;;;;;;11.82;3.33;;;;;;;;;;5060021;28;20028;-74
2022/09/16 02:56:14;;;;;;;12.98;3.28;;;;;;;;;;5060681;28;20033;-73
2022/09/16 02:58:40;;;;;;;11.80;3.30;;;;;;;;;;5033874;28;20037;-75
2022/09/16 03:01:05;;;;;;;11.35;3.10;;;;;;;;;;5053424;28;20040;-72
2022/09/16 03:03:31;;;;;;;15.63;3.45;;;;;;;;;;5060339;28;20063;-71
2022/09/16 03:05:59;;;;;;;13.00;3.55;;;;;;;;;;5051148;28;20037;-73
2022/09/16 03:08:24;;;;;;;12.80;3.17;;;;;;;;;;5050800;28;20098;-72
2022/09/16 03:10:51;;;;;;;10.73;3.03;;;;;;;;;;5060143;28;20043;-75
2022/09/16 03:13:20;;;;;;;15.50;3.42;;;;;;;;;;5060357;28;20036;-72
2022/09/16 03:15:48;;;;;;;12.93;3.30;;;;;;;;;;5059670;28;20047;-73
2022/09/16 03:18:19;;;;;;;11.75;2.95;;;;;;;;;;5059146;28;20156;-72
2022/09/16 03:20:57;;;;;;;13.40;3.60;;;;;;;;;;5057512;28;20082;-73
2022/09/16 03:23:25;;;;;;;15.48;3.08;;;;;;;;;;5040915;28;20428;-74
2022/09/16 03:25:57;;;;;;;9.67;3.23;;;;;;;;;;5051894;28;20039;-73
2022/09/16 03:28:34;;;;;;;13.32;3.15;;;;;;;;;;5061694;28;20097;-72
2022/09/16 03:31:08;;;;;;;18.30;3.58;;;;;;;;;;5060321;28;20020;-73
2022/09/16 03:33:45;;;;;;;12.90;3.85;;;;;;;;;;5058064;28;20451;-73
2022/09/16 03:36:13;;;;;;;13.73;3.85;;;;;;;;;;5057407;28;20063;-72
2022/09/16 03:38:40;;;;;;;18.63;3.50;;;;;;;;;;5037575;28;20040;-72
2022/09/16 03:41:06;;;;;;;15.32;3.42;;;;;;;;;;5051464;28;20032;-75
2022/09/16 03:43:31;;;;;;;17.85;3.90;;;;;;;;;;5056934;28;20056;-73
2022/09/16 03:45:57;;;;;;;10.32;3.25;;;;;;;;;;5057674;28;20043;-72
2022/09/16 03:48:22;;;;;;;11.07;3.22;;;;;;;;;;5060363;28;20028;-72
2022/09/16 03:50:48;;;;;;;11.65;3.28;;;;;;;;;;5057438;28;20043;-71
2022/09/16 03:53:13;;;;;;;9.35;3.25;;;;;;;;;;5058015;28;20025;-72
2022/09/16 03:55:38;;;;;;;13.30;3.28;;;;;;;;;;5058062;28;20093;-74
2022/09/16 03:58:04;;;;;;;12.02;3.55;;;;;;;;;;5047203;28;20038;-73
2022/09/16 04:00:29;;;;;;;10.40;3.38;;;;;;;;;;5038761;28;20390;-75
2022/09/16 04:02:55;;;;;;;11.50;3.58;;;;;;;;;;5050856;28;20139;-72
2022/09/16 04:05:20;;;;;;;10.73;3.78;;;;;;;;;;5056230;28;20039;-74
2022/09/16 04:07:47;;;;;;;12.70;3.50;;;;;;;;;;5038346;28;20024;-73
2022/09/16 04:10:12;;;;;;;10.98;3.10;;;;;;;;;;5043789;28;20017;-74
2022/09/16 04:12:38;;;;;;;14.93;3.80;;;;;;;;;;5037214;28;20021;-75
2022/09/16 04:15:03;;;;;;;13.40;3.10;;;;;;;;;;5052893;28;20033;-74
2022/09/16 04:17:30;;;;;;;14.50;3.70;;;;;;;;;;5050064;28;20023;-73
2022/09/16 04:19:56;;;;;;;13.32;2.85;;;;;;;;;;5050965;28;20107;-74
2022/09/16 04:22:21;;;;;;;12.77;3.33;;;;;;;;;;5050166;28;20123;-72
2022/09/16 04:24:46;;;;;;;11.88;3.08;;;;;;;;;;5050937;28;20028;-74
2022/09/16 04:27:12;;;;;;;10.45;3.22;;;;;;;;;;5056111;28;20020;-72
2022/09/16 04:29:37;;;;;;;13.50;3.10;;;;;;;;;;5058025;28;20032;-72
2022/09/16 04:32:02;;;;;;;13.07;3.72;;;;;;;;;;5038711;28;20036;-72
2022/09/16 04:34:28;;;;;;;14.90;3.53;;;;;;;;;;5037679;28;20020;-74
2022/09/16 04:36:53;;;;;;;11.15;3.47;;;;;;;;;;5054957;28;20407;-72
2022/09/16 04:39:18;;;;;;;8.15;2.95;;;;;;;;;;5057537;28;20017;-72
2022/09/16 04:41:44;;;;;;;13.30;3.47;;;;;;;;;;5055670;28;20036;-74
2022/09/16 04:44:09;;;;;;;10.50;2.83;;;;;;;;;;5033787;28;20054;-72
2022/09/16 04:46:35;;;;;;;10.10;3.38;;;;;;;;;;5053238;28;20060;-71
2022/09/16 04:49:00;;;;;;;6.90;2.95;;;;;;;;;;5035318;28;20033;-71
2022/09/16 04:51:26;;;;;;;12.25;3.33;;;;;;;;;;5019281;28;20031;-72
2022/09/16 04:53:52;;;;;;;12.27;2.72;;;;;;;;;;5036003;28;20036;-75
2022/09/16 04:56:19;;;;;;;9.35;3.00;;;;;;;;;;5040719;28;20055;-72
2022/09/16 04:58:49;;;;;;;10.18;3.13;;;;;;;;;;5057751;28;20037;-72
2022/09/16 05:01:16;;;;;;;11.48;3.20;;;;;;;;;;5057708;28;20035;-71
2022/09/16 05:03:42;;;;;;;11.23;3.17;;;;;;;;;;5056122;28;20024;-71
2022/09/16 05:06:09;;;;;;;8.05;3.25;;;;;;;;;;5033301;28;20086;-71
2022/09/16 05:08:35;;;;;;;12.52;3.13;;;;;;;;;;5036482;28;20114;-71
2022/09/16 05:11:04;;;;;;;9.30;3.33;;;;;;;;;;5035719;28;20427;-72
2022/09/16 05:13:29;;;;;;;;;;;;;;;;;;5042631;28;20016;-71
2022/09/16 05:15:55;;;;;;;9.83;3.37;;;;;;;;;;5055678;28;19961;-71
2022/09/16 05:18:20;;;;;;;13.40;3.58;;;;;;;;;;5049101;28;20540;-72
2022/09/16 05:20:45;;;;;;;9.40;3.47;;;;;;;;;;5034797;28;20032;-72
2022/09/16 05:23:11;;;;;;;10.32;3.92;;;;;;;;;;5035620;28;20029;-71
2022/09/16 05:25:36;;;;;;;15.18;4.25;;;;;;;;;;5032871;28;20375;-71
2022/09/16 05:28:01;;;;;;;15.90;5.25;;;;;;;;;;5058249;28;20025;-72
2022/09/16 05:30:27;;;;;;;12.88;5.47;;;;;;;;;;5058290;28;20507;-71
2022/09/16 05:32:53;;;;;;;14.65;5.53;;;;;;;;;;5046297;28;20096;-73
2022/09/16 05:35:18;;;;;;;13.05;5.25;;;;;;;;;;5037143;28;20029;-73
2022/09/16 05:37:44;;;;;;;12.90;5.03;;;;;;;;;;5035089;28;20052;-74
2022/09/16 05:40:09;;;;;;;12.73;4.63;;;;;;;;;;5034949;28;20036;-73
2022/09/16 05:42:34;;;;;;;12.68;4.22;;;;;;;;;;5038587;28;20116;-73
2022/09/16 05:45:00;;;;;;;13.10;4.70;;;;;;;;;;5038879;28;20044;-73
2022/09/16 05:47:26;;;;;;;14.27;4.28;;;;;;;;;;5045325;28;20028;-72
2022/09/16 05:49:53;;;;;;;15.45;3.97;;;;;;;;;;5056143;28;20024;-72
2022/09/16 05:52:19;;;;;;;14.48;4.60;;;;;;;;;;5056869;28;20029;-72
2022/09/16 05:54:44;;;;;;;12.95;4.78;;;;;;;;;;5056961;28;20029;-73
2022/09/16 05:57:09;;;;;;;15.10;5.13;;;;;;;;;;5056820;28;20112;-71
2022/09/16 05:59:35;;;;;;;14.45;5.80;;;;;;;;;;5057009;28;20107;-73
2022/09/16 06:02:00;;;;;;;11.73;4.50;;;;;;;;;;5056512;28;20021;-72
2022/09/16 06:04:25;;;;;;;10.80;4.10;;;;;;;;;;5047548;28;20082;-72
2022/09/16 06:06:51;;;;;;;14.27;4.95;;;;;;;;;;5047921;28;20435;-71
2022/09/16 06:09:18;;;;;;;13.02;4.47;;;;;;;;;;5056643;28;20417;-73
2022/09/16 06:11:45;;;;;;;14.18;4.57;;;;;;;;;;5050439;28;20051;-74
2022/09/16 06:14:11;;;;;;;16.33;6.28;;;;;;;;;;5040056;28;20051;-71
2022/09/16 06:16:37;;;;;;;21.17;15.45;;;;;;;;;;5037254;28;20028;-74
2022/09/16 06:19:05;;;;;;;14.05;4.95;;;;;;;;;;5037292;28;20044;-76
2022/09/16 06:21:30;;;;;;;16.92;7.90;;;;;;;;;;5051525;28;20029;-73
2022/09/16 06:23:56;;;;;;;21.55;15.45;;;;;;;;;;5060352;28;20428;-72
2022/09/16 06:26:23;;;;;;;15.50;7.57;;;;;;;;;;5059800;28;20363;-73
2022/09/16 06:28:49;;;;;;;21.27;12.07;;;;;;;;;;5062871;28;20103;-72
2022/09/16 06:31:15;;;;;;;10.18;5.03;;;;;;;;;;5059830;28;20121;-74
2022/09/16 06:33:41;;;;;;;11.90;4.05;;;;;;;;;;5057819;28;20017;-74
2022/09/16 06:36:06;;;;;;;8.95;4.20;;;;;;;;;;5059950;28;20039;-73
2022/09/16 06:38:32;;;;;;;10.13;5.10;;;;;;;;;;5059412;28;20024;-72
2022/09/16 06:40:58;;;;;;;7.78;4.35;;;;;;;;;;5062955;28;20063;-73
2022/09/16 06:43:24;;;;;;;9.40;4.25;;;;;;;;;;5062066;28;20102;-75
2022/09/16 06:45:49;;;;;;;11.40;4.13;;;;;;;;;;5060079;28;20162;-73
2022/09/16 06:48:14;;;;;;;7.75;4.90;;;;;;;;;;5059941;28;20347;-72
2022/09/16 06:50:40;;;;;;;11.48;3.25;;;;;;;;;;5062586;28;20064;-72
2022/09/16 06:53:05;;;;;;;6.90;3.60;;;;;;;;;;5060993;28;20020;-72
2022/09/16 06:55:30;;;;;;;6.10;3.22;;;;;;;;;;5056686;28;20028;-73
2022/09/16 06:57:56;;;;;;;4.97;3.58;;;;;;;;;;5060017;28;20028;-72
2022/09/16 07:00:21;;;;;;;6.85;3.33;;;;;;;;;;5061145;28;20115;-71
2022/09/16 07:02:46;;;;;;;7.00;3.55;;;;;;;;;;5059096;28;20021;-73
2022/09/16 07:05:12;;;;;;;5.93;2.83;;;;;;;;;;5059811;28;20103;-76
2022/09/16 07:07:38;;;;;;;10.35;3.35;;;;;;;;;;5060832;28;20671;-72
2022/09/16 07:10:04;;;;;;;13.15;3.10;;;;;;;;;;5059644;28;20051;-74
2022/09/16 07:12:30;;;;;;;8.75;3.30;;;;;;;;;;5050370;28;20357;-74
2022/09/16 07:14:55;;;;;;;7.55;3.75;;;;;;;;;;5047512;28;20038;-71
2022/09/16 07:17:22;;;;;;;7.72;3.63;;;;;;;;;;5060460;28;20529;-71
2022/09/16 07:19:48;;;;;;;4.70;2.90;;;;;;;;;;5059194;28;20028;-74
2022/09/16 07:22:13;;;;;;;8.18;3.72;;;;;;;;;;5037101;28;20301;-72
2022/09/16 07:24:38;;;;;;;5.05;3.10;;;;;;;;;;5039270;28;20440;-72
2022/09/16 07:27:04;;;;;;;4.10;2.95;;;;;;;;;;5037447;28;21098;-72
2022/09/16 07:29:29;;;;;;;6.65;3.35;;;;;;;;;;5053775;28;20074;-71
2022/09/16 07:31:55;;;;;;;4.93;3.00;;;;;;;;;;5062257;28;20025;-73
2022/09/16 07:34:20;;;;;;;5.28;2.85;;;;;;;;;;5062424;28;20020;-71
2022/09/16 07:36:46;;;;;;;6.57;2.75;;;;;;;;;;5062040;28;20102;-73
2022/09/16 07:39:13;;;;;;;10.02;3.67;;;;;;;;;;5060255;28;20108;-74
2022/09/16 07:41:39;;;;;;;6.32;3.45;;;;;;;;;;5062374;28;20044;-73
2022/09/16 07:44:06;;;;;;;6.55;3.08;;;;;;;;;;5061160;28;20102;-73
2022/09/16 07:46:33;;;;;;;7.65;3.10;;;;;;;;;;5059792;28;20447;-74
2022/09/16 07:48:59;;;;;;;7.35;3.65;;;;;;;;;;5038496;28;20032;-75
2022/09/16 07:51:26;;;;;;;7.35;3.80;;;;;;;;;;5044850;28;21055;-72
2022/09/16 07:53:59;;;;;;;4.72;3.25;;;;;;;;;;5048912;28;20058;-73
2022/09/16 07:56:25;;;;;;;5.90;3.15;;;;;;;;;;5039346;28;20036;-71
2022/09/16 07:58:52;;;;;;;5.80;3.55;;;;;;;;;;5046984;28;20064;-74
2022/09/16 08:01:17;;;;;;;5.72;3.63;;;;;;;;;;5059417;28;20032;-75
2022/09/16 08:03:43;;;;;;;9.48;3.15;;;;;;;;;;5045802;28;20025;-78
2022/09/16 08:06:11;;;;;;;4.97;3.22;;;;;;;;;;5025701;28;20213;-76
2022/09/16 08:08:36;;;;;;;5.32;3.03;;;;;;;;;;5040186;28;20032;-75
2022/09/16 08:11:02;;;;;;;6.50;4.05;;;;;;;;;;5041465;28;20069;-75
2022/09/16 08:13:29;;;;;;;4.57;2.88;;;;;;;;;;5057005;28;20025;-81
2022/09/16 08:15:58;;;;;;;5.90;3.05;;;;;;;;;;5051165;28;20055;-77
2022/09/16 08:18:23;;;;;;;5.68;3.38;;;;;;;;;;5051777;28;20043;-76
2022/09/16 08:20:49;;;;;;;5.30;3.20;;;;;;;;;;5060889;28;20024;-85
2022/09/16 08:23:14;;;;;;;9.23;3.13;;;;;;;;;;5059996;28;20755;-81
2022/09/16 08:25:41;;;;;;;7.05;2.85;;;;;;;;;;5057010;28;20020;-76
2022/09/16 08:28:11;;;;;;;5.82;3.08;;;;;;;;;;5060143;28;20036;-75
2022/09/16 08:30:36;;;;;;;7.45;2.83;;;;;;;;;;5061594;28;20036;-78
2022/09/16 08:33:01;;;;;;;4.10;2.80;;;;;;;;;;5060476;28;20355;-75
2022/09/16 08:35:27;;;;;;;12.00;3.70;;;;;;;;;;5058072;28;20060;-76
2022/09/16 08:37:52;;;;;;;6.15;3.58;;;;;;;;;;5058463;28;20039;-76
2022/09/16 08:40:20;;;;;;;4.82;3.10;;;;;;;;;;5058296;28;20033;-75
2022/09/16 08:42:45;;;;;;;8.70;4.00;;;;;;;;;;5058673;28;20108;-78
2022/09/16 08:45:10;;;;;;;10.02;4.75;;;;;;;;;;5043287;28;20151;-77
2022/09/16 08:47:51;;;;;;;6.50;3.20;;;;;;;;;;5059271;28;20546;-77
2022/09/16 08:50:21;;;;;;;9.27;4.90;;;;;;;;;;5040752;28;20013;-78
2022/09/16 08:52:47;;;;;;;10.93;3.78;;;;;;;;;;5039639;28;20025;-77
2022/09/16 08:55:26;;;;;;;8.57;3.65;;;;;;;;;;5036387;28;20044;-77
2022/09/16 08:57:51;;;;;;;;;;;;;;;;;;5040478;28;20039;-76
2022/09/16 09:00:18;;;;;;;8.33;3.77;;;;;;;;;;5035731;28;19920;-75
2022/09/16 09:02:52;;;;;;;7.30;3.80;;;;;;;;;;5038787;28;20702;-80
2022/09/16 09:05:26;;;;;;;5.03;3.40;;;;;;;;;;5034947;28;20060;-77
2022/09/16 09:08:16;;;;;;;4.65;3.50;;;;;;;;;;5037788;28;20064;-76
2022/09/16 09:11:04;;;;;;;6.75;3.65;;;;;;;;;;5043137;28;20457;-79
2022/09/16 09:13:40;;;;;;;6.22;3.10;;;;;;;;;;5046446;28;20344;-77
2022/09/16 09:16:08;;;;;;;8.55;3.70;;;;;;;;;;5024769;28;20351;-75
2022/09/16 09:18:53;;;;;;;8.80;3.50;;;;;;;;;;5053075;28;20044;-80
2022/09/16 09:21:23;;;;;;;6.22;3.47;;;;;;;;;;5045238;28;20264;-75
2022/09/16 09:23:59;;;;;;;5.78;3.42;;;;;;;;;;5037673;28;20025;-78
2022/09/16 09:26:30;;;;;;;8.13;3.88;;;;;;;;;;5052493;28;20543;-75
2022/09/16 09:28:56;;;;;;;7.60;4.03;;;;;;;;;;5039615;28;20033;-75
2022/09/16 09:31:21;;;;;;;7.13;4.50;;;;;;;;;;5035053;28;20044;-74
2022/09/16 09:34:13;;;;;;;7.40;4.07;;;;;;;;;;5041886;28;20029;-76
2022/09/16 09:36:41;;;;;;;6.57;4.00;;;;;;;;;;4968896;28;20042;-77
2022/09/16 09:39:12;;;;;;;7.40;4.67;;;;;;;;;;4971216;28;20041;-76
2022/09/16 09:41:46;;;;;;;5.88;4.03;;;;;;;;;;4968893;28;20561;-77
2022/09/16 09:44:29;;;;;;;8.88;4.25;;;;;;;;;;4970906;28;20470;-76
2022/09/16 09:46:57;;;;;;;5.85;3.67;;;;;;;;;;4970705;28;20129;-77
2022/09/16 09:49:28;;;;;;;8.38;3.97;;;;;;;;;;4971428;28;20389;-77
2022/09/16 09:52:06;;;;;;;8.10;5.30;;;;;;;;;;4973646;28;20023;-77
2022/09/16 09:54:35;;;;;;;6.50;3.58;;;;;;;;;;4982811;28;20046;-77
2022/09/16 09:57:21;;;;;;;7.97;4.55;;;;;;;;;;4975435;28;20478;-76
2022/09/16 10:00:11;;;;;;;11.40;4.95;;;;;;;;;;4972308;28;20049;-76
2022/09/16 10:02:38;;;;;;;8.95;4.72;;;;;;;;;;4972941;28;20117;-75
2022/09/16 10:05:06;;;;;;;7.72;4.20;;;;;;;;;;4972494;28;20052;-76
2022/09/16 10:07:34;;;;;;;12.10;4.65;;;;;;;;;;4971771;28;20046;-75
2022/09/16 10:10:03;;;;;;;10.82;4.75;;;;;;;;;;4973561;28;20030;-76
2022/09/16 10:12:30;;;;;;;7.10;4.20;;;;;;;;;;4977524;28;20050;-78
2022/09/16 10:14:56;;;;;;;12.32;6.05;;;;;;;;;;5019425;28;20064;-76
2022/09/16 10:17:21;;;;;;;13.10;4.90;;;;;;;;;;5022570;28;20029;-76
2022/09/16 10:20:19;;;;;;;9.25;6.05;;;;;;;;;;5021635;28;20551;-77
2022/09/16 10:22:52;;;;;;;8.82;4.80;;;;;;;;;;4967962;28;20903;-76
2022/09/16 10:25:23;;;;;;;9.70;4.80;;;;;;;;;;4967084;28;20494;-79
2022/09/16 10:27:57;;;;;;;14.35;4.65;;;;;;;;;;4968558;28;20030;-77
2022/09/16 10:30:22;;;;;;;10.40;5.88;;;;;;;;;;4980295;28;20034;-76
2022/09/16 10:32:55;;;;;;;10.07;6.80;;;;;;;;;;4981083;28;20042;-75
2022/09/16 10:35:24;;;;;;;11.43;4.88;;;;;;;;;;4982713;28;20056;-76
2022/09/16 10:37:51;;;;;;;10.43;4.53;;;;;;;;;;4981486;28;20441;-75
2022/09/16 10:40:18;;;;;;;10.95;4.20;;;;;;;;;;4982315;28;20597;-78
2022/09/16 10:42:47;;;;;;;9.10;4.28;;;;;;;;;;4977726;28;20482;-79
2022/09/16 10:45:15;;;;;;;12.25;4.07;;;;;;;;;;4972562;28;20054;-80
2022/09/16 10:47:47;;;;;;;9.30;3.83;;;;;;;;;;4983703;28;20046;-83
2022/09/16 10:50:17;;;;;;;8.50;3.75;;;;;;;;;;4982315;28;20122;-78
2022/09/16 10:52:46;;;;;;;13.18;4.35;;;;;;;;;;4981374;28;20042;-76
2022/09/16 10:55:21;;;;;;;9.55;3.97;;;;;;;;;;4983144;28;20509;-80
2022/09/16 10:57:48;;;;;;;8.10;3.38;;;;;;;;;;4998292;28;20047;-85
2022/09/16 11:00:22;;;;;;;6.22;3.50;;;;;;;;;;5040409;28;20033;-77
2022/09/16 11:03:05;;;;;;;6.35;2.63;;;;;;;;;;5024938;28;20025;-80
2022/09/16 11:05:38;;;;;;;17.55;10.00;;;;;;;;;;5020179;28;20024;-78
2022/09/16 11:08:24;;;;;;;6.00;3.80;;;;;;;;;;5027296;28;20036;-83
2022/09/16 11:11:05;;;;;;;5.13;2.55;;;;;;;;;;5039834;28;20029;-76
2022/09/16 11:13:41;;;;;;;8.07;2.47;;;;;;;;;;5039738;28;20045;-75
2022/09/16 11:16:07;;;;;;;4.40;2.75;;;;;;;;;;5041750;28;20716;-76
2022/09/16 11:18:41;;;;;;;9.77;3.47;;;;;;;;;;5038986;28;20037;-78
2022/09/16 11:21:13;;;;;;;7.18;2.88;;;;;;;;;;5041755;28;20055;-79
2022/09/16 11:24:08;;;;;;;8.10;2.80;;;;;;;;;;5039948;28;20028;-78
2022/09/16 11:26:44;;;;;;;5.03;3.00;;;;;;;;;;5024916;28;20530;-77
2022/09/16 11:29:28;;;;;;;7.15;2.80;;;;;;;;;;5039547;28;20024;-77
2022/09/16 11:31:53;;;;;;;5.88;2.65;;;;;;;;;;5039789;28;20088;-78
2022/09/16 11:34:32;;;;;;;4.13;2.15;;;;;;;;;;5041789;28;20060;-79
2022/09/16 11:37:30;;;;;;;5.22;2.03;;;;;;;;;;5040686;28;20406;-77
2022/09/16 11:40:05;;;;;;;7.57;2.53;;;;;;;;;;4982035;28;20050;-77
2022/09/16 11:42:35;;;;;;;3.88;2.00;;;;;;;;;;4982897;28;20038;-77
2022/09/16 11:45:27;;;;;;;9.57;2.67;;;;;;;;;;4982368;28;20127;-76
2022/09/16 11:47:53;;;;;;;7.18;2.20;;;;;;;;;;4959347;28;20035;-78
2022/09/16 11:50:39;;;;;;;5.15;1.83;;;;;;;;;;4958945;28;20109;-78
2022/09/16 11:53:22;;;;;;;5.30;2.03;;;;;;;;;;4923670;29;20040;-76
2022/09/16 11:55:51;;;;;;;8.35;1.63;;;;;;;;;;4924537;29;20044;-76
2022/09/16 11:58:28;;;;;;;3.65;1.50;;;;;;;;;;4924173;29;20048;-77
2022/09/16 12:00:55;;;;;;;7.13;4.03;;;;;;;;;;4924797;29;20032;-78
2022/09/16 12:03:41;;;;;;;4.55;2.42;;;;;;;;;;4924221;29;20054;-79
2022/09/16 12:06:13;;;;;;;6.10;2.03;;;;;;;;;;4904819;29;20443;-76
2022/09/16 12:08:38;;;;;;;4.05;1.80;;;;;;;;;;4905432;29;20036;-78
2022/09/16 12:11:19;;;;;;;7.15;2.75;;;;;;;;;;4904628;29;20051;-76
2022/09/16 12:13:52;;;;;;;8.40;5.43;;;;;;;;;;4903438;29;20460;-76
2022/09/16 12:16:33;;;;;;;5.47;3.05;;;;;;;;;;4906287;29;20241;-77
2022/09/16 12:19:01;;;;;;;10.18;2.58;;;;;;;;;;4907052;29;20044;-77
2022/09/16 12:21:30;;;;;;;9.05;3.47;;;;;;;;;;4905991;29;20190;-79
2022/09/16 12:24:00;;;;;;;7.13;1.73;;;;;;;;;;4914933;28;20080;-77
2022/09/16 12:26:40;;;;;;;6.65;1.60;;;;;;;;;;4945245;28;20042;-77
2022/09/16 12:29:11;;;;;;;4.65;1.63;;;;;;;;;;4947834;28;20027;-79
2022/09/16 12:31:39;;;;;;;5.03;1.83;;;;;;;;;;4960446;28;20035;-79
2022/09/16 12:34:10;;;;;;;7.87;2.17;;;;;;;;;;4944721;28;20463;-78
2022/09/16 12:36:39;;;;;;;3.80;1.70;;;;;;;;;;4936433;28;20046;-76
2022/09/16 12:39:04;;;;;;;6.00;1.67;;;;;;;;;;4937177;28;20035;-76
2022/09/16 12:41:39;;;;;;;6.57;2.17;;;;;;;;;;4942711;28;20348;-76
2022/09/16 12:44:13;;;;;;;8.05;1.80;;;;;;;;;;5017850;28;20044;-78
2022/09/16 12:46:39;;;;;;;5.80;2.20;;;;;;;;;;5037308;28;20035;-77
2022/09/16 12:49:10;;;;;;;4.43;1.77;;;;;;;;;;5040638;28;20028;-77
2022/09/16 12:51:54;;;;;;;5.13;1.75;;;;;;;;;;5054916;28;20021;-79
2022/09/16 12:54:20;;;;;;;4.07;1.60;;;;;;;;;;5057884;28;20024;-79
2022/09/16 12:56:51;;;;;;;7.78;2.13;;;;;;;;;;5058762;28;20107;-78
2022/09/16 12:59:26;;;;;;;4.55;1.77;;;;;;;;;;5059533;28;20028;-80
2022/09/16 13:01:55;;;;;;;3.47;1.67;;;;;;;;;;5059795;28;20931;-77
2022/09/16 13:04:20;;;;;;;;;;;;;;;;;;5060209;28;20355;-78
2022/09/16 13:06:50;;;;;;;8.10;1.90;;;;;;;;;;5061316;28;20003;-79
2022/09/16 13:09:24;;;;;;;4.47;1.65;;;;;;;;;;5057992;28;20024;-79
2022/09/16 13:12:01;;;;;;;3.58;1.80;;;;;;;;;;5060562;28;20017;-79
2022/09/16 13:14:28;;;;;;;3.40;1.50;;;;;;;;;;5053027;28;20060;-79
2022/09/16 13:16:55;;;;;;;6.60;1.90;;;;;;;;;;5024135;28;20039;-75
2022/09/16 13:19:30;;;;;;;5.72;2.35;;;;;;;;;;5053322;28;20071;-78
2022/09/16 13:21:57;;;;;;;4.30;1.73;;;;;;;;;;5054668;28;20445;-78
2022/09/16 13:24:30;;;;;;;5.60;2.00;;;;;;;;;;5057021;28;20044;-79
2022/09/16 13:26:56;;;;;;;5.72;1.83;;;;;;;;;;5057885;28;20041;-77
2022/09/16 13:29:42;;;;;;;5.68;1.80;;;;;;;;;;5064544;28;20333;-77
2022/09/16 13:32:24;;;;;;;5.60;4.70;;;;;;;;;;5060904;28;20017;-78
2022/09/16 13:34:59;;;;;;;4.03;3.08;;;;;;;;;;5058384;28;20063;-78
2022/09/16 13:37:25;;;;;;;5.10;2.10;;;;;;;;;;5051590;28;20086;-80
2022/09/16 13:39:51;;;;;;;8.75;2.58;;;;;;;;;;5051440;28;20025;-76
2022/09/16 13:42:19;;;;;;;3.83;1.90;;;;;;;;;;5044368;28;20060;-76
2022/09/16 13:44:44;;;;;;;6.28;2.38;;;;;;;;;;5038675;28;20045;-75
2022/09/16 13:47:09;;;;;;;4.22;1.70;;;;;;;;;;5050869;28;20046;-75
2022/09/16 13:49:44;;;;;;;4.70;2.30;;;;;;;;;;5064333;28;20033;-75
2022/09/16 13:52:11;;;;;;;5.68;2.10;;;;;;;;;;5061926;28;20016;-74
2022/09/16 13:54:50;;;;;;;4.72;2.03;;;;;;;;;;5062778;28;21071;-74
2022/09/16 13:57:15;;;;;;;3.22;1.95;;;;;;;;;;5063814;28;20075;-74
2022/09/16 13:59:51;;;;;;;4.95;2.00;;;;;;;;;;5063704;28;20452;-75
2022/09/16 14:02:29;;;;;;;1.90;1.45;;;;;;;;;;5063277;28;20107;-75
2022/09/16 14:05:08;;;;;;;4.82;1.95;;;;;;;;;;5063636;28;20153;-75
2022/09/16 14:07:52;;;;;;;5.15;2.30;;;;;;;;;;5063395;28;20039;-75
2022/09/16 14:10:17;;;;;;;9.10;2.40;;;;;;;;;;5063856;28;20452;-75
2022/09/16 14:12:47;;;;;;;5.47;2.25;;;;;;;;;;5062101;28;20024;-74
2022/09/16 14:15:13;;;;;;;4.38;1.75;;;;;;;;;;5060831;28;20020;-75
2022/09/16 14:17:43;;;;;;;9.13;2.47;;;;;;;;;;5061524;28;20039;-75
2022/09/16 14:20:16;;;;;;;12.13;8.63;;;;;;;;;;5062548;28;20029;-75
2022/09/16 14:22:43;;;;;;;15.75;11.13;;;;;;;;;;5061673;28;20036;-76
2022/09/16 14:25:27;;;;;;;10.55;4.65;;;;;;;;;;5062830;28;20063;-75
2022/09/16 14:28:05;;;;;;;7.38;3.15;;;;;;;;;;5062258;28;20074;-75
2022/09/16 14:30:30;;;;;;;5.70;2.30;;;;;;;;;;5063528;28;20017;-75
2022/09/16 14:32:56;;;;;;;6.80;1.90;;;;;;;;;;5059773;28;20020;-74
2022/09/16 14:35:23;;;;;;;4.65;2.05;;;;;;;;;;5061900;28;20016;-74
2022/09/16 14:37:51;;;;;;;4.93;2.70;;;;;;;;;;5062890;28;20032;-75
2022/09/16 14:40:18;;;;;;;5.93;3.70;;;;;;;;;;5061414;28;20020;-74
2022/09/16 14:42:48;;;;;;;5.35;1.92;;;;;;;;;;5043050;28;20401;-74
2022/09/16 14:45:15;;;;;;;4.93;1.50;;;;;;;;;;5061521;28;20048;-75
2022/09/16 14:47:42;;;;;;;3.78;1.40;;;;;;;;;;5061915;28;20050;-75
2022/09/16 14:50:23;;;;;;;3.47;1.67;;;;;;;;;;5061309;28;20464;-76
2022/09/16 14:52:53;;;;;;;2.60;1.60;;;;;;;;;;5062046;28;20035;-75